aviador You're here:

KRME Decoded Metar

ROME in NY, USA
Report Time2017-11-18 12:53:00
UTC Time2017-11-18 13:58:48
Flight Rules vfr VFR
Wind100° at 07 kt
W.Decomp.*RWY 15: 5.6 kt HW 4.2 kt LCW
W.Rank100° ranks 5
Current wind is above 100° avg. (6.4)
Visibility9999 m
Phenomena:N/A
Clouds:N/A
Expected CloudBase > 2,400 ft AGL from Temp-Dew spread
CeilingNone
Temp-1°C (ISA -15)
Dew Point-7°C (64% RH)
AAT-6.3°C
QNH1009 hPa
Density Alt-1,142 ft
Elevation505 ft
Report Wrong Elevation
Raw Report
METAR KRME 181253Z 10007KT 10SM CLR M01/M07 A2981 RMK AO2 SLP099 T10061067=

Extra information for KRME:More info

Metar Taf Metar & Taf Last 4 Metars F.Rules Stats Wind Profile Meteogram Temp Stats Airport Information Weather charts Add Link Nearby VenuesMetar ALERT Operation Metar Decoded Social comments

AIRNAV info for KRME